createdAt,value
2022-11-15T00:02:25.544Z,98.35
2022-11-15T00:04:51.966Z,97.03
2022-11-15T00:07:48.443Z,97.05
2022-11-15T00:10:04.761Z,96.18
2022-11-15T00:12:31.074Z,95.18
2022-11-15T00:14:57.653Z,94.63
2022-11-15T00:17:24.006Z,91.47
2022-11-15T00:19:50.413Z,93.93
2022-11-15T00:22:16.855Z,92.90
2022-11-15T00:24:43.299Z,91.60
2022-11-15T00:27:09.634Z,90.28
2022-11-15T00:29:35.986Z,87.93
2022-11-15T00:32:02.315Z,89.20
2022-11-15T00:34:28.938Z,86.30
2022-11-15T00:36:55.375Z,84.82
2022-11-15T00:39:21.727Z,85.25
2022-11-15T00:41:48.951Z,80.20
2022-11-15T00:44:15.303Z,81.28
2022-11-15T00:46:41.747Z,81.30
2022-11-15T00:49:08.039Z,82.55
2022-11-15T00:51:34.354Z,81.15
2022-11-15T00:54:00.703Z,80.10
2022-11-15T00:56:27.346Z,79.75
2022-11-15T00:58:53.718Z,79.30
2022-11-15T01:01:20.191Z,75.18
2022-11-15T01:03:46.708Z,74.38
2022-11-15T01:06:13.216Z,74.55
2022-11-15T01:08:39.507Z,72.93
2022-11-15T01:11:05.803Z,74.65
2022-11-15T01:13:32.513Z,72.93
2022-11-15T01:15:59.161Z,70.10
2022-11-15T01:18:25.531Z,73.05
2022-11-15T01:20:51.946Z,69.65
2022-11-15T01:23:18.432Z,70.13
2022-11-15T01:25:44.782Z,69.68
2022-11-15T01:28:11.184Z,70.85
2022-11-15T01:30:37.563Z,69.88
2022-11-15T01:33:03.995Z,66.80
2022-11-15T01:35:30.281Z,69.10
2022-11-15T01:37:56.824Z,67.72
2022-11-15T01:40:23.192Z,68.10
2022-11-15T01:42:49.646Z,65.05
2022-11-15T01:45:15.958Z,65.45
2022-11-15T01:47:42.293Z,64.18
2022-11-15T01:50:08.779Z,64.78
2022-11-15T01:52:35.101Z,61.30
2022-11-15T01:55:01.527Z,63.22
2022-11-15T01:57:28.302Z,60.50
2022-11-15T01:59:54.785Z,62.47
2022-11-15T02:02:21.097Z,61.65
2022-11-15T02:04:47.659Z,58.65
2022-11-15T02:07:14.258Z,59.72
2022-11-15T02:09:40.965Z,58.47
2022-11-15T02:12:07.276Z,58.85
2022-11-15T02:14:34.098Z,59.08
2022-11-15T02:17:00.389Z,57.50
2022-11-15T02:19:26.798Z,58.05
2022-11-15T02:21:53.180Z,58.50
2022-11-15T02:24:19.817Z,58.58
2022-11-15T02:26:46.121Z,56.70
2022-11-15T02:29:12.721Z,57.85
2022-11-15T02:31:39.072Z,56.95
2022-11-15T02:34:05.369Z,54.78
2022-11-15T02:36:31.673Z,54.75
2022-11-15T02:38:57.938Z,54.75
2022-11-15T02:41:24.264Z,53.70
2022-11-15T02:43:50.593Z,54.08
2022-11-15T02:46:16.913Z,52.70
2022-11-15T02:48:43.193Z,52.00
2022-11-15T02:51:09.532Z,51.85
2022-11-15T02:53:35.942Z,51.70
2022-11-15T02:56:02.292Z,53.55
2022-11-15T02:58:28.633Z,50.58
2022-11-15T03:00:55.012Z,52.65
2022-11-15T03:03:21.431Z,50.45
2022-11-15T03:05:47.892Z,50.78
2022-11-15T03:08:14.231Z,50.22
2022-11-15T03:10:40.575Z,48.83
2022-11-15T03:13:06.890Z,48.13
2022-11-15T03:15:33.232Z,49.90
2022-11-15T03:18:00.192Z,48.70
2022-11-15T03:20:26.837Z,47.42
2022-11-15T03:22:53.242Z,47.95
2022-11-15T03:25:19.546Z,47.88
2022-11-15T03:27:46.062Z,47.55
2022-11-15T03:30:12.432Z,46.58
2022-11-15T03:32:38.868Z,45.95
2022-11-15T03:35:05.320Z,46.70
2022-11-15T03:37:31.632Z,45.75
2022-11-15T03:39:58.026Z,45.63
2022-11-15T03:42:24.340Z,44.65
2022-11-15T03:44:50.684Z,44.13
2022-11-15T03:47:17.028Z,44.53
2022-11-15T03:49:43.384Z,44.55
2022-11-15T03:52:09.768Z,46.33
2022-11-15T03:54:36.088Z,45.30
2022-11-15T03:57:02.486Z,45.33
2022-11-15T03:59:28.914Z,42.50
2022-11-15T04:01:55.223Z,43.42
2022-11-15T04:04:21.615Z,44.55
2022-11-15T04:06:48.057Z,43.58
2022-11-15T04:09:14.546Z,43.60
2022-11-15T04:11:40.880Z,42.97
2022-11-15T04:14:07.277Z,42.08
2022-11-15T04:16:33.690Z,41.28
2022-11-15T04:19:00.010Z,41.88
2022-11-15T04:21:26.356Z,41.95
2022-11-15T04:23:52.740Z,43.80
2022-11-15T04:26:19.000Z,40.40
2022-11-15T04:28:45.465Z,41.05
2022-11-15T04:31:11.754Z,41.13
2022-11-15T04:33:39.291Z,41.75
2022-11-15T04:36:05.611Z,41.20
2022-11-15T04:38:32.067Z,41.35
2022-11-15T04:40:58.436Z,39.63
2022-11-15T04:43:24.798Z,40.15
2022-11-15T04:45:51.067Z,39.10
2022-11-15T04:48:17.683Z,39.80
2022-11-15T04:50:43.965Z,37.88
2022-11-15T04:53:10.693Z,38.58
2022-11-15T04:55:37.198Z,38.50
2022-11-15T04:58:03.572Z,38.00
2022-11-15T05:00:29.848Z,38.05
2022-11-15T05:02:56.176Z,38.17
2022-11-15T05:05:22.476Z,38.83
2022-11-15T05:07:48.881Z,36.67
2022-11-15T05:10:15.160Z,38.28
2022-11-15T05:12:41.536Z,37.50
2022-11-15T05:15:07.863Z,38.38
2022-11-15T05:17:34.119Z,37.25
2022-11-15T05:20:00.566Z,36.67
2022-11-15T05:22:27.119Z,37.15
2022-11-15T05:24:53.433Z,36.83
2022-11-15T05:27:19.857Z,36.75
2022-11-15T05:29:46.202Z,37.17
2022-11-15T05:32:12.517Z,36.45
2022-11-15T05:34:38.975Z,36.17
2022-11-15T05:37:05.322Z,35.88
2022-11-15T05:39:31.884Z,37.05
2022-11-15T05:41:58.284Z,35.38
2022-11-15T05:44:24.615Z,36.33
2022-11-15T05:46:50.911Z,32.92
2022-11-15T05:49:17.340Z,36.10
2022-11-15T05:51:43.611Z,34.58
2022-11-15T05:54:11.973Z,35.33
2022-11-15T05:56:38.351Z,34.65
2022-11-15T05:59:04.936Z,34.60
2022-11-15T06:01:31.295Z,33.60
2022-11-15T06:03:57.586Z,34.08
2022-11-15T06:06:23.910Z,32.97
2022-11-15T06:08:50.474Z,34.97
2022-11-15T06:11:16.828Z,33.08
2022-11-15T06:13:43.294Z,34.22
2022-11-15T06:16:09.655Z,32.78
2022-11-15T06:18:35.987Z,33.33
2022-11-15T06:21:02.496Z,33.20
2022-11-15T06:23:29.123Z,33.55
2022-11-15T06:25:55.717Z,32.88
2022-11-15T06:28:22.197Z,33.42
2022-11-15T06:30:53.026Z,33.47
2022-11-15T06:33:19.718Z,32.70
2022-11-15T06:35:46.011Z,32.97
2022-11-15T06:38:12.413Z,32.30
2022-11-15T06:40:38.867Z,32.20
2022-11-15T06:43:05.291Z,31.83
2022-11-15T06:45:32.807Z,32.40
2022-11-15T06:47:59.730Z,30.13
2022-11-15T06:50:26.914Z,29.17
2022-11-15T06:52:53.700Z,29.60
2022-11-15T06:55:20.482Z,29.75
2022-11-15T06:57:47.439Z,29.95
2022-11-15T07:00:14.630Z,28.90
2022-11-15T07:02:41.594Z,29.70
2022-11-15T07:05:08.362Z,29.58
2022-11-15T07:10:19.840Z,29.80
2022-11-15T07:15:27.198Z,29.48
2022-11-15T07:17:54.923Z,28.42
2022-11-15T07:20:21.606Z,28.83
2022-11-15T07:22:48.235Z,29.23
2022-11-15T07:25:14.899Z,28.80
2022-11-15T07:27:41.535Z,27.48
2022-11-15T07:30:08.018Z,28.98
2022-11-15T07:32:34.541Z,29.42
2022-11-15T07:35:00.913Z,28.58
2022-11-15T07:37:27.370Z,27.80
2022-11-15T07:39:53.794Z,28.38
2022-11-15T07:42:20.054Z,29.55
2022-11-15T07:44:46.470Z,29.00
2022-11-15T07:47:12.948Z,29.23
2022-11-15T07:49:39.333Z,28.13
2022-11-15T07:52:05.702Z,27.48
2022-11-15T07:54:31.997Z,29.67
2022-11-15T07:57:01.239Z,29.02
2022-11-15T07:59:32.182Z,29.40
2022-11-15T08:01:58.645Z,28.20
2022-11-15T08:04:25.171Z,28.55
2022-11-15T08:06:51.525Z,27.38
2022-11-15T08:09:17.867Z,28.45
2022-11-15T08:11:44.198Z,28.52
2022-11-15T08:14:10.565Z,27.27
2022-11-15T08:16:36.990Z,28.42
2022-11-15T08:19:03.374Z,27.80
2022-11-15T08:21:29.678Z,28.65
2022-11-15T08:23:55.976Z,29.00
2022-11-15T08:26:22.476Z,27.58
2022-11-15T08:28:48.856Z,29.80
2022-11-15T08:31:15.353Z,33.25
2022-11-15T08:33:41.639Z,32.70
2022-11-15T08:36:08.047Z,34.47
2022-11-15T08:38:34.711Z,34.75
2022-11-15T08:41:01.315Z,34.20
2022-11-15T08:43:27.700Z,34.75
2022-11-15T08:45:54.078Z,34.47
2022-11-15T08:48:20.474Z,36.10
2022-11-15T08:50:46.889Z,35.58
2022-11-15T08:53:13.413Z,35.08
2022-11-15T08:55:39.738Z,34.47
2022-11-15T08:58:06.114Z,35.63
2022-11-15T09:00:32.723Z,35.03
2022-11-15T09:02:59.110Z,35.30
2022-11-15T09:05:25.529Z,36.63
2022-11-15T09:07:51.875Z,36.67
2022-11-15T09:10:18.326Z,34.97
2022-11-15T09:12:44.767Z,35.67
2022-11-15T09:15:12.189Z,36.13
2022-11-15T09:17:38.500Z,33.85
2022-11-15T09:20:04.970Z,33.97
2022-11-15T09:22:31.336Z,34.05
2022-11-15T09:24:57.649Z,34.55
2022-11-15T09:27:24.161Z,34.20
2022-11-15T09:29:50.816Z,33.65
2022-11-15T09:32:17.916Z,34.00
2022-11-15T09:37:22.917Z,33.58
2022-11-15T09:39:49.533Z,32.55
2022-11-15T09:42:16.180Z,34.17
2022-11-15T09:44:43.654Z,31.55
2022-11-15T09:47:10.281Z,32.30
2022-11-15T09:49:37.414Z,33.15
2022-11-15T09:52:03.971Z,31.58
2022-11-15T09:54:52.081Z,32.20
2022-11-15T09:57:16.750Z,32.55
2022-11-15T09:59:43.153Z,31.30
2022-11-15T10:02:09.603Z,31.90
2022-11-15T10:04:36.173Z,29.80
2022-11-15T10:07:02.604Z,31.48
2022-11-15T10:09:28.997Z,30.98
2022-11-15T10:11:55.405Z,31.33
2022-11-15T10:14:21.880Z,31.98
2022-11-15T10:16:48.258Z,31.02
2022-11-15T10:19:14.818Z,31.65
2022-11-15T10:21:41.262Z,32.08
2022-11-15T10:24:07.590Z,31.42
2022-11-15T10:26:34.034Z,31.42
2022-11-15T10:29:00.682Z,34.45
2022-11-15T10:31:27.043Z,32.35
2022-11-15T10:33:53.595Z,32.60
2022-11-15T10:36:20.128Z,30.85
2022-11-15T10:38:46.596Z,31.40
2022-11-15T10:41:13.241Z,31.92
2022-11-15T10:43:39.678Z,31.55
2022-11-15T10:46:31.610Z,31.80
2022-11-15T10:48:54.800Z,31.42
2022-11-15T10:51:21.311Z,30.73
2022-11-15T10:53:47.719Z,32.40
2022-11-15T10:56:14.298Z,29.88
2022-11-15T10:58:40.926Z,31.38
2022-11-15T11:01:07.852Z,30.58
2022-11-15T11:03:34.142Z,32.03
2022-11-15T11:06:00.520Z,30.45
2022-11-15T11:08:26.888Z,31.40
2022-11-15T11:10:57.148Z,32.55
2022-11-15T11:13:26.864Z,32.50
2022-11-15T11:15:53.297Z,30.17
2022-11-15T11:18:22.239Z,32.05
2022-11-15T11:20:48.536Z,29.35
2022-11-15T11:23:14.981Z,29.15
2022-11-15T11:25:43.500Z,29.25
2022-11-15T11:28:09.882Z,29.95
2022-11-15T11:30:36.183Z,29.10
2022-11-15T11:33:02.636Z,28.20
2022-11-15T11:35:29.113Z,28.20
2022-11-15T11:37:55.644Z,29.10
2022-11-15T11:40:21.957Z,27.95
2022-11-15T11:42:48.407Z,27.55
2022-11-15T11:45:14.751Z,28.20
2022-11-15T11:47:41.113Z,28.55
2022-11-15T11:50:07.494Z,28.48
2022-11-15T11:52:34.289Z,28.08
2022-11-15T11:55:03.049Z,29.13
2022-11-15T11:57:29.742Z,27.13
2022-11-15T11:59:58.571Z,27.67
2022-11-15T12:02:25.089Z,26.60
2022-11-15T12:07:26.529Z,26.67
2022-11-15T12:09:53.079Z,27.65
2022-11-15T12:12:19.850Z,25.38
2022-11-15T12:14:46.415Z,25.30
2022-11-15T12:17:13.072Z,26.40
2022-11-15T12:19:39.460Z,26.23
2022-11-15T12:22:05.969Z,24.67
2022-11-15T12:24:32.316Z,24.65
2022-11-15T12:26:58.652Z,25.08
2022-11-15T12:29:25.994Z,24.70
2022-11-15T12:31:52.449Z,24.65
2022-11-15T12:34:18.859Z,25.42
2022-11-15T12:36:45.284Z,25.08
2022-11-15T12:39:11.702Z,24.35
2022-11-15T12:41:38.118Z,25.23
2022-11-15T12:44:04.622Z,23.02
2022-11-15T12:46:31.030Z,24.25
2022-11-15T12:48:57.538Z,23.77
2022-11-15T12:51:23.959Z,23.52
2022-11-15T12:53:51.465Z,22.77
2022-11-15T12:56:17.777Z,22.40
2022-11-15T12:58:44.104Z,23.52
2022-11-15T13:01:10.407Z,23.95
2022-11-15T13:03:37.058Z,21.58
2022-11-15T13:06:03.589Z,23.55
2022-11-15T13:08:30.241Z,22.40
2022-11-15T13:10:56.918Z,23.17
2022-11-15T13:13:23.543Z,22.75
2022-11-15T13:15:49.930Z,22.60
2022-11-15T13:18:16.342Z,22.10
2022-11-15T13:20:42.769Z,22.08
2022-11-15T13:23:09.245Z,21.77
2022-11-15T13:25:36.740Z,20.30
2022-11-15T13:28:07.742Z,20.55
2022-11-15T13:30:34.372Z,20.80
2022-11-15T13:33:00.886Z,20.83
2022-11-15T13:35:27.303Z,20.23
2022-11-15T13:37:53.783Z,21.27
2022-11-15T13:40:20.321Z,19.98
2022-11-15T13:42:46.627Z,20.08
2022-11-15T13:45:13.349Z,21.13
2022-11-15T13:47:39.925Z,21.10
2022-11-15T13:50:12.112Z,19.65
2022-11-15T13:52:38.892Z,20.08
2022-11-15T13:55:05.416Z,20.23
2022-11-15T13:57:32.159Z,19.92
2022-11-15T13:59:59.009Z,20.55
2022-11-15T14:02:25.438Z,18.95
2022-11-15T14:04:51.748Z,19.90
2022-11-15T14:07:18.101Z,19.70
2022-11-15T14:09:44.409Z,19.08
2022-11-15T14:12:10.837Z,19.10
2022-11-15T14:14:37.212Z,19.45
2022-11-15T14:17:03.808Z,18.65
2022-11-15T14:19:30.316Z,18.98
2022-11-15T14:21:56.695Z,19.15
2022-11-15T14:24:23.066Z,19.10
2022-11-15T14:26:49.379Z,18.60
2022-11-15T14:29:15.674Z,18.63
2022-11-15T14:31:43.953Z,18.75
2022-11-15T14:34:10.550Z,18.13
2022-11-15T14:36:36.924Z,19.05
2022-11-15T14:39:03.248Z,17.98
2022-11-15T14:41:29.616Z,18.73
2022-11-15T14:43:55.967Z,17.65
2022-11-15T14:46:22.353Z,18.50
2022-11-15T14:48:48.752Z,18.40
2022-11-15T14:51:15.779Z,19.35
2022-11-15T14:53:42.289Z,18.27
2022-11-15T14:56:08.673Z,17.25
2022-11-15T14:58:35.196Z,17.60
2022-11-15T15:01:01.681Z,17.73
2022-11-15T15:03:28.086Z,18.05
2022-11-15T15:05:54.631Z,18.38
2022-11-15T15:08:23.319Z,17.10
2022-11-15T15:10:49.878Z,16.60
2022-11-15T15:13:16.415Z,17.30
2022-11-15T15:15:42.726Z,18.13
2022-11-15T15:18:09.130Z,16.40
2022-11-15T15:20:35.828Z,16.80
2022-11-15T15:23:02.408Z,16.45
2022-11-15T15:25:28.822Z,16.98
2022-11-15T15:27:55.138Z,16.80
2022-11-15T15:30:21.576Z,16.23
2022-11-15T15:32:48.028Z,15.48
2022-11-15T15:35:14.498Z,15.90
2022-11-15T15:37:41.007Z,16.27
2022-11-15T15:40:09.996Z,16.05
2022-11-15T15:42:36.436Z,16.17
2022-11-15T15:45:02.818Z,15.55
2022-11-15T15:47:29.277Z,15.70
2022-11-15T15:49:58.500Z,14.65
2022-11-15T15:52:24.858Z,15.43
2022-11-15T15:54:51.193Z,14.90
2022-11-15T15:57:17.537Z,15.10
2022-11-15T15:59:44.021Z,15.15
2022-11-15T16:02:10.525Z,15.52
2022-11-15T16:04:37.109Z,15.18
2022-11-15T16:07:03.528Z,14.70
2022-11-15T16:09:29.891Z,13.90
2022-11-15T16:11:56.305Z,14.57
2022-11-15T16:14:22.861Z,13.68
2022-11-15T16:16:49.533Z,14.75
2022-11-15T16:19:16.222Z,14.60
2022-11-15T16:21:42.556Z,14.73
2022-11-15T16:24:09.143Z,13.98
2022-11-15T16:26:35.596Z,13.27
2022-11-15T16:29:02.082Z,14.75
2022-11-15T16:31:28.723Z,14.30
2022-11-15T16:33:55.040Z,13.10
2022-11-15T16:36:25.657Z,14.40
2022-11-15T16:38:55.878Z,12.48
2022-11-15T16:41:22.288Z,12.45
2022-11-15T16:43:48.668Z,13.98
2022-11-15T16:46:15.042Z,13.10
2022-11-15T16:48:41.319Z,12.82
2022-11-15T16:51:07.719Z,13.60
2022-11-15T16:53:34.165Z,13.30
2022-11-15T16:56:00.567Z,13.73
2022-11-15T16:58:26.895Z,13.50
2022-11-15T17:00:53.305Z,12.70
2022-11-15T17:03:19.727Z,12.82
2022-11-15T17:05:46.162Z,12.60
2022-11-15T17:08:12.546Z,11.80
2022-11-15T17:10:38.879Z,13.20
2022-11-15T17:13:05.268Z,12.15
2022-11-15T17:15:33.668Z,12.23
2022-11-15T17:18:00.001Z,12.50
2022-11-15T17:20:26.505Z,12.60
2022-11-15T17:22:52.862Z,12.80
2022-11-15T17:25:19.296Z,12.05
2022-11-15T17:27:45.618Z,13.13
2022-11-15T17:30:12.012Z,12.35
2022-11-15T17:32:38.367Z,12.02
2022-11-15T17:35:04.755Z,12.68
2022-11-15T17:37:31.146Z,12.07
2022-11-15T17:39:57.522Z,12.20
2022-11-15T17:42:24.020Z,11.48
2022-11-15T17:44:50.342Z,11.90
2022-11-15T17:47:17.834Z,12.05
2022-11-15T17:49:44.543Z,11.68
2022-11-15T17:52:10.873Z,11.70
2022-11-15T17:54:40.245Z,11.80
2022-11-15T17:57:06.588Z,12.40
2022-11-15T17:59:32.918Z,11.90
2022-11-15T18:01:59.243Z,12.60
2022-11-15T18:04:25.700Z,11.95
2022-11-15T18:06:52.274Z,11.55
2022-11-15T18:09:18.790Z,12.13
2022-11-15T18:11:45.192Z,12.80
2022-11-15T18:14:11.621Z,13.13
2022-11-15T18:16:37.908Z,12.48
2022-11-15T18:19:04.321Z,11.43
2022-11-15T18:21:32.698Z,12.45
2022-11-15T18:23:59.228Z,12.48
2022-11-15T18:26:27.831Z,11.95
2022-11-15T18:28:54.455Z,12.27
2022-11-15T18:31:20.775Z,14.85
2022-11-15T18:33:48.150Z,23.90
2022-11-15T18:36:14.789Z,61.33
2022-11-15T18:38:41.208Z,126.20
2022-11-15T18:41:07.907Z,145.57
2022-11-15T18:43:34.561Z,144.45
2022-11-15T18:46:01.076Z,142.60
2022-11-15T18:48:27.436Z,140.38
2022-11-15T18:50:54.133Z,200.85
2022-11-15T18:53:20.734Z,218.77
2022-11-15T18:55:47.110Z,247.50
2022-11-15T18:58:13.544Z,250.52
2022-11-15T19:00:39.959Z,249.55
2022-11-15T19:03:06.394Z,232.20
2022-11-15T19:05:32.846Z,195.60
2022-11-15T19:07:59.329Z,174.63
2022-11-15T19:10:27.708Z,176.57
2022-11-15T19:12:54.206Z,169.88
2022-11-15T19:15:20.601Z,148.88
2022-11-15T19:17:47.054Z,145.10
2022-11-15T19:20:13.821Z,146.82
2022-11-15T19:22:42.232Z,156.13
2022-11-15T19:25:08.756Z,206.30
2022-11-15T19:27:38.011Z,254.15
2022-11-15T19:30:04.637Z,274.33
2022-11-15T19:32:31.085Z,269.92
2022-11-15T19:34:58.842Z,269.25
2022-11-15T19:37:25.440Z,251.48
2022-11-15T19:39:51.892Z,249.65
2022-11-15T19:42:18.288Z,251.80
2022-11-15T19:44:44.702Z,258.23
2022-11-15T19:47:11.064Z,277.50
2022-11-15T19:49:37.407Z,258.50
2022-11-15T19:52:04.155Z,261.13
2022-11-15T19:54:30.520Z,272.17
2022-11-15T19:56:56.882Z,276.65
2022-11-15T19:59:24.391Z,281.95
2022-11-15T20:01:50.758Z,261.27
2022-11-15T20:04:17.281Z,259.23
2022-11-15T20:06:43.658Z,298.23
2022-11-15T20:09:12.326Z,345.85
2022-11-15T20:11:38.835Z,354.55
2022-11-15T20:14:05.373Z,379.25
2022-11-15T20:16:40.612Z,375.70
2022-11-15T20:19:07.089Z,368.58
2022-11-15T20:21:33.771Z,419.38
2022-11-15T20:24:00.255Z,460.92
2022-11-15T20:26:34.397Z,452.85
2022-11-15T20:29:00.787Z,434.88
2022-11-15T20:31:27.318Z,429.98
2022-11-15T20:33:53.774Z,421.95
2022-11-15T20:39:00.446Z,405.98
2022-11-15T20:41:27.074Z,393.73
2022-11-15T20:43:53.433Z,392.60
2022-11-15T20:46:21.581Z,381.38
2022-11-15T20:48:48.020Z,375.73
2022-11-15T20:51:14.456Z,373.67
2022-11-15T20:53:41.279Z,366.10
2022-11-15T20:58:48.230Z,410.27
2022-11-15T21:01:14.650Z,446.35
2022-11-15T21:03:42.227Z,437.45
2022-11-15T21:06:08.737Z,447.60
2022-11-15T21:08:35.906Z,437.35
2022-11-15T21:11:02.325Z,433.38
2022-11-15T21:13:29.190Z,426.83
2022-11-15T21:18:36.529Z,415.88
2022-11-15T21:21:03.045Z,412.63
2022-11-15T21:23:29.613Z,501.77
2022-11-15T21:28:36.714Z,582.22
2022-11-15T21:31:03.162Z,551.38
2022-11-15T21:33:29.496Z,549.83
2022-11-15T21:38:36.302Z,527.75
2022-11-15T21:41:02.997Z,521.33
2022-11-15T21:43:29.862Z,513.95
2022-11-15T21:45:56.807Z,512.05
2022-11-15T21:48:23.194Z,496.75
2022-11-15T21:50:49.587Z,493.63
2022-11-15T21:53:16.208Z,489.67
2022-11-15T22:00:49.803Z,462.08
2022-11-15T22:03:16.336Z,459.48
2022-11-15T22:08:22.996Z,384.42
2022-11-15T22:10:49.362Z,392.23
2022-11-15T22:19:04.134Z,268.45
2022-11-15T22:21:30.554Z,239.77
2022-11-15T22:23:57.118Z,231.27
2022-11-15T22:26:24.265Z,266.13
2022-11-15T22:28:50.906Z,341.80
2022-11-15T22:31:17.547Z,389.48
2022-11-15T22:33:44.040Z,361.52
2022-11-15T22:36:10.367Z,354.02
2022-11-15T22:38:37.337Z,341.77
2022-11-15T22:41:04.133Z,335.25
2022-11-15T22:43:30.470Z,330.05
2022-11-15T22:45:56.825Z,328.23
2022-11-15T22:48:24.312Z,317.88
2022-11-15T22:50:50.820Z,317.55
2022-11-15T22:53:21.960Z,313.60
2022-11-15T22:55:48.395Z,301.00
2022-11-15T22:58:14.824Z,303.55
2022-11-15T23:00:41.193Z,287.30
2022-11-15T23:03:07.894Z,288.38
2022-11-15T23:05:34.483Z,281.35
2022-11-15T23:08:00.921Z,281.63
2022-11-15T23:10:28.360Z,279.00
2022-11-15T23:12:54.780Z,271.80
2022-11-15T23:15:21.326Z,405.58
2022-11-15T23:17:47.755Z,393.67
2022-11-15T23:20:41.417Z,486.33
2022-11-15T23:23:00.973Z,384.15
2022-11-15T23:25:27.607Z,371.10
2022-11-15T23:27:53.949Z,364.20
2022-11-15T23:30:20.376Z,361.98
2022-11-15T23:32:47.846Z,347.50
2022-11-15T23:35:14.376Z,350.75
2022-11-15T23:37:40.825Z,339.05
2022-11-15T23:40:07.301Z,333.67
2022-11-15T23:42:36.611Z,330.77
2022-11-15T23:45:02.970Z,331.35
2022-11-15T23:47:29.368Z,369.60
2022-11-15T23:49:55.866Z,525.45
2022-11-15T23:52:22.357Z,447.17
2022-11-15T23:54:48.686Z,446.27
2022-11-15T23:57:16.126Z,442.55
2022-11-15T23:59:42.474Z,443.55
